sensor_id;sensor_type;location;lat;lon;timestamp;P1;durP1;ratioP1;P2;durP2;ratioP2
2564;SDS011;1292;48.020;7.822;2023-06-26T05:45:17;6.80;;;5.70;;
2564;SDS011;1292;48.020;7.822;2023-06-26T05:47:44;5.93;;;5.33;;
2564;SDS011;1292;48.020;7.822;2023-06-26T05:50:12;5.97;;;5.47;;
2564;SDS011;1292;48.020;7.822;2023-06-26T05:52:39;6.40;;;5.90;;
2564;SDS011;1292;48.020;7.822;2023-06-26T05:55:07;5.40;;;4.90;;
2564;SDS011;1292;48.020;7.822;2023-06-26T05:57:35;5.63;;;5.03;;
2564;SDS011;1292;48.020;7.822;2023-06-26T06:00:04;6.43;;;5.43;;
2564;SDS011;1292;48.020;7.822;2023-06-26T06:02:37;5.30;;;4.80;;
2564;SDS011;1292;48.020;7.822;2023-06-26T06:05:04;5.90;;;5.40;;
2564;SDS011;1292;48.020;7.822;2023-06-26T06:07:31;5.87;;;5.37;;
2564;SDS011;1292;48.020;7.822;2023-06-26T06:09:59;7.53;;;6.10;;
2564;SDS011;1292;48.020;7.822;2023-06-26T06:12:26;6.60;;;6.00;;
2564;SDS011;1292;48.020;7.822;2023-06-26T06:14:53;6.20;;;5.70;;
2564;SDS011;1292;48.020;7.822;2023-06-26T06:17:20;6.00;;;5.43;;
2564;SDS011;1292;48.020;7.822;2023-06-26T06:19:48;5.90;;;5.40;;
2564;SDS011;1292;48.020;7.822;2023-06-26T06:22:15;6.23;;;5.53;;
2564;SDS011;1292;48.020;7.822;2023-06-26T06:24:42;5.73;;;5.23;;
2564;SDS011;1292;48.020;7.822;2023-06-26T06:27:10;8.20;;;5.13;;
2564;SDS011;1292;48.020;7.822;2023-06-26T06:29:38;5.20;;;4.70;;
2564;SDS011;1292;48.020;7.822;2023-06-26T06:32:05;5.50;;;5.00;;
2564;SDS011;1292;48.020;7.822;2023-06-26T06:34:32;6.70;;;5.70;;
2564;SDS011;1292;48.020;7.822;2023-06-26T06:37:01;5.80;;;5.23;;
2564;SDS011;1292;48.020;7.822;2023-06-26T06:39:28;6.10;;;5.47;;
2564;SDS011;1292;48.020;7.822;2023-06-26T06:41:55;90.67;;;6.83;;
2564;SDS011;1292;48.020;7.822;2023-06-26T06:44:22;5.50;;;5.00;;
2564;SDS011;1292;48.020;7.822;2023-06-26T06:46:49;7.50;;;5.53;;
2564;SDS011;1292;48.020;7.822;2023-06-26T06:49:16;7.27;;;5.37;;
2564;SDS011;1292;48.020;7.822;2023-06-26T06:51:42;5.90;;;5.40;;
2564;SDS011;1292;48.020;7.822;2023-06-26T06:54:11;5.60;;;5.20;;
2564;SDS011;1292;48.020;7.822;2023-06-26T06:56:37;5.50;;;5.00;;
2564;SDS011;1292;48.020;7.822;2023-06-26T06:59:04;5.83;;;5.10;;
2564;SDS011;1292;48.020;7.822;2023-06-26T07:01:31;5.77;;;5.27;;
2564;SDS011;1292;48.020;7.822;2023-06-26T07:03:58;6.20;;;5.60;;
2564;SDS011;1292;48.020;7.822;2023-06-26T07:06:25;7.00;;;5.23;;
2564;SDS011;1292;48.020;7.822;2023-06-26T07:08:51;5.13;;;4.70;;
2564;SDS011;1292;48.020;7.822;2023-06-26T07:11:20;6.40;;;5.80;;
2564;SDS011;1292;48.020;7.822;2023-06-26T07:13:46;6.40;;;5.80;;
2564;SDS011;1292;48.020;7.822;2023-06-26T07:16:13;5.53;;;5.03;;
2564;SDS011;1292;48.020;7.822;2023-06-26T07:18:40;6.33;;;5.00;;
2564;SDS011;1292;48.020;7.822;2023-06-26T07:21:08;6.10;;;5.40;;
2564;SDS011;1292;48.020;7.822;2023-06-26T07:23:35;6.10;;;5.60;;
2564;SDS011;1292;48.020;7.822;2023-06-26T07:26:02;5.97;;;5.47;;
2564;SDS011;1292;48.020;7.822;2023-06-26T07:28:30;5.43;;;4.93;;
2564;SDS011;1292;48.020;7.822;2023-06-26T07:30:57;6.67;;;6.07;;
2564;SDS011;1292;48.020;7.822;2023-06-26T07:33:23;6.13;;;5.57;;
2564;SDS011;1292;48.020;7.822;2023-06-26T07:35:50;6.60;;;6.00;;
2564;SDS011;1292;48.020;7.822;2023-06-26T07:38:17;6.50;;;4.77;;
2564;SDS011;1292;48.020;7.822;2023-06-26T07:40:44;6.00;;;5.40;;
2564;SDS011;1292;48.020;7.822;2023-06-26T07:43:10;6.00;;;5.40;;
2564;SDS011;1292;48.020;7.822;2023-06-26T07:45:39;5.27;;;4.60;;
2564;SDS011;1292;48.020;7.822;2023-06-26T07:48:06;5.70;;;5.00;;
2564;SDS011;1292;48.020;7.822;2023-06-26T07:50:34;9.30;;;6.37;;
2564;SDS011;1292;48.020;7.822;2023-06-26T07:53:01;9.90;;;6.30;;
2564;SDS011;1292;48.020;7.822;2023-06-26T07:55:27;6.53;;;5.33;;
2564;SDS011;1292;48.020;7.822;2023-06-26T07:57:54;6.77;;;6.17;;
2564;SDS011;1292;48.020;7.822;2023-06-26T08:00:21;5.73;;;5.23;;
2564;SDS011;1292;48.020;7.822;2023-06-26T08:02:50;5.97;;;5.47;;
2564;SDS011;1292;48.020;7.822;2023-06-26T08:05:16;7.23;;;5.97;;
2564;SDS011;1292;48.020;7.822;2023-06-26T08:07:43;5.70;;;5.30;;
2564;SDS011;1292;48.020;7.822;2023-06-26T08:10:10;5.97;;;5.47;;
2564;SDS011;1292;48.020;7.822;2023-06-26T08:12:37;5.93;;;5.43;;
2564;SDS011;1292;48.020;7.822;2023-06-26T08:15:05;5.40;;;5.00;;
2564;SDS011;1292;48.020;7.822;2023-06-26T08:17:33;9.27;;;5.77;;
2564;SDS011;1292;48.020;7.822;2023-06-26T08:20:02;6.77;;;6.10;;
2564;SDS011;1292;48.020;7.822;2023-06-26T08:22:30;7.47;;;5.47;;
2564;SDS011;1292;48.020;7.822;2023-06-26T08:24:57;6.40;;;5.57;;
2564;SDS011;1292;48.020;7.822;2023-06-26T08:27:23;12.03;;;6.00;;
2564;SDS011;1292;48.020;7.822;2023-06-26T08:29:50;5.73;;;5.33;;
2564;SDS011;1292;48.020;7.822;2023-06-26T08:32:17;6.27;;;5.77;;
2564;SDS011;1292;48.020;7.822;2023-06-26T08:34:44;6.10;;;5.60;;
2564;SDS011;1292;48.020;7.822;2023-06-26T08:37:12;6.50;;;5.90;;
2564;SDS011;1292;48.020;7.822;2023-06-26T08:39:39;7.20;;;6.60;;
2564;SDS011;1292;48.020;7.822;2023-06-26T08:42:06;7.33;;;5.60;;
2564;SDS011;1292;48.020;7.822;2023-06-26T08:44:32;6.40;;;5.80;;
2564;SDS011;1292;48.020;7.822;2023-06-26T08:47:00;7.20;;;6.60;;
2564;SDS011;1292;48.020;7.822;2023-06-26T08:49:28;7.80;;;6.27;;
2564;SDS011;1292;48.020;7.822;2023-06-26T08:52:02;8.20;;;6.10;;
2564;SDS011;1292;48.020;7.822;2023-06-26T08:54:39;8.53;;;5.80;;
2564;SDS011;1292;48.020;7.822;2023-06-26T08:57:10;6.60;;;6.10;;
2564;SDS011;1292;48.020;7.822;2023-06-26T08:59:38;7.60;;;6.97;;
2564;SDS011;1292;48.020;7.822;2023-06-26T09:02:05;7.70;;;7.00;;
2564;SDS011;1292;48.020;7.822;2023-06-26T09:04:32;6.53;;;5.93;;
2564;SDS011;1292;48.020;7.822;2023-06-26T09:07:00;7.90;;;7.10;;
2564;SDS011;1292;48.020;7.822;2023-06-26T09:09:28;6.10;;;5.60;;
2564;SDS011;1292;48.020;7.822;2023-06-26T09:11:56;7.70;;;6.20;;
2564;SDS011;1292;48.020;7.822;2023-06-26T09:14:23;7.70;;;6.27;;
2564;SDS011;1292;48.020;7.822;2023-06-26T09:16:50;7.00;;;6.43;;
2564;SDS011;1292;48.020;7.822;2023-06-26T09:19:17;9.47;;;5.53;;
2564;SDS011;1292;48.020;7.822;2023-06-26T09:21:44;6.10;;;5.60;;
2564;SDS011;1292;48.020;7.822;2023-06-26T09:24:11;6.80;;;6.20;;
2564;SDS011;1292;48.020;7.822;2023-06-26T09:26:38;6.60;;;6.00;;
2564;SDS011;1292;48.020;7.822;2023-06-26T09:29:07;6.57;;;5.83;;
2564;SDS011;1292;48.020;7.822;2023-06-26T09:31:35;7.27;;;6.57;;
2564;SDS011;1292;48.020;7.822;2023-06-26T09:34:03;8.37;;;6.80;;
2564;SDS011;1292;48.020;7.822;2023-06-26T09:36:30;6.87;;;6.37;;
2564;SDS011;1292;48.020;7.822;2023-06-26T09:38:59;7.40;;;6.63;;
2564;SDS011;1292;48.020;7.822;2023-06-26T09:41:26;6.90;;;6.30;;
2564;SDS011;1292;48.020;7.822;2023-06-26T09:43:53;7.00;;;6.40;;
2564;SDS011;1292;48.020;7.822;2023-06-26T09:46:26;6.50;;;6.00;;
2564;SDS011;1292;48.020;7.822;2023-06-26T09:48:57;10.30;;;6.80;;
2564;SDS011;1292;48.020;7.822;2023-06-26T09:51:26;7.80;;;7.03;;
2564;SDS011;1292;48.020;7.822;2023-06-26T09:53:55;6.80;;;6.20;;
2564;SDS011;1292;48.020;7.822;2023-06-26T09:56:22;6.10;;;5.60;;
2564;SDS011;1292;48.020;7.822;2023-06-26T09:58:50;9.03;;;6.40;;
2564;SDS011;1292;48.020;7.822;2023-06-26T10:01:17;6.90;;;6.20;;
2564;SDS011;1292;48.020;7.822;2023-06-26T10:03:46;6.77;;;6.00;;
2564;SDS011;1292;48.020;7.822;2023-06-26T10:06:13;8.03;;;6.73;;
2564;SDS011;1292;48.020;7.822;2023-06-26T10:08:41;7.00;;;6.10;;
2564;SDS011;1292;48.020;7.822;2023-06-26T10:11:09;7.70;;;6.43;;
2564;SDS011;1292;48.020;7.822;2023-06-26T10:13:42;7.27;;;5.60;;
2564;SDS011;1292;48.020;7.822;2023-06-26T10:16:11;8.10;;;6.00;;
2564;SDS011;1292;48.020;7.822;2023-06-26T10:18:39;7.70;;;7.10;;
2564;SDS011;1292;48.020;7.822;2023-06-26T10:21:08;10.63;;;5.87;;
2564;SDS011;1292;48.020;7.822;2023-06-26T10:23:37;6.87;;;6.20;;
2564;SDS011;1292;48.020;7.822;2023-06-26T10:26:06;7.10;;;6.47;;
2564;SDS011;1292;48.020;7.822;2023-06-26T10:28:34;6.00;;;5.53;;
2564;SDS011;1292;48.020;7.822;2023-06-26T10:31:02;6.40;;;5.80;;
2564;SDS011;1292;48.020;7.822;2023-06-26T10:33:32;6.03;;;5.53;;
2564;SDS011;1292;48.020;7.822;2023-06-26T10:36:14;8.07;;;7.27;;
2564;SDS011;1292;48.020;7.822;2023-06-26T10:38:49;6.77;;;6.00;;
2564;SDS011;1292;48.020;7.822;2023-06-26T10:41:19;7.23;;;6.00;;
2564;SDS011;1292;48.020;7.822;2023-06-26T10:43:48;6.57;;;6.07;;
2564;SDS011;1292;48.020;7.822;2023-06-26T10:46:17;7.13;;;6.50;;
2564;SDS011;1292;48.020;7.822;2023-06-26T10:51:31;6.30;;;5.70;;
2564;SDS011;1292;48.020;7.822;2023-06-26T10:53:58;6.17;;;5.57;;
2564;SDS011;1292;48.020;7.822;2023-06-26T10:56:43;5.70;;;5.27;;
2564;SDS011;1292;48.020;7.822;2023-06-26T10:59:11;5.97;;;5.43;;
2564;SDS011;1292;48.020;7.822;2023-06-26T11:01:41;7.20;;;6.53;;
2564;SDS011;1292;48.020;7.822;2023-06-26T11:04:08;8.10;;;6.27;;
2564;SDS011;1292;48.020;7.822;2023-06-26T11:06:38;8.77;;;5.83;;
2564;SDS011;1292;48.020;7.822;2023-06-26T11:09:09;6.47;;;5.87;;
2564;SDS011;1292;48.020;7.822;2023-06-26T11:14:27;7.07;;;6.47;;
2564;SDS011;1292;48.020;7.822;2023-06-26T11:16:55;6.87;;;6.23;;
2564;SDS011;1292;48.020;7.822;2023-06-26T11:19:23;8.70;;;7.20;;
2564;SDS011;1292;48.020;7.822;2023-06-26T11:21:53;6.27;;;5.67;;
2564;SDS011;1292;48.020;7.822;2023-06-26T11:24:25;6.70;;;6.10;;
2564;SDS011;1292;48.020;7.822;2023-06-26T11:26:52;6.83;;;6.10;;
2564;SDS011;1292;48.020;7.822;2023-06-26T11:29:19;12.00;;;6.07;;
2564;SDS011;1292;48.020;7.822;2023-06-26T11:31:46;16.93;;;7.67;;
2564;SDS011;1292;48.020;7.822;2023-06-26T11:34:13;9.53;;;6.60;;
2564;SDS011;1292;48.020;7.822;2023-06-26T11:36:41;9.87;;;7.13;;
2564;SDS011;1292;48.020;7.822;2023-06-26T11:39:12;7.63;;;6.93;;
2564;SDS011;1292;48.020;7.822;2023-06-26T11:41:39;7.40;;;5.57;;
2564;SDS011;1292;48.020;7.822;2023-06-26T11:44:07;6.80;;;6.07;;
2564;SDS011;1292;48.020;7.822;2023-06-26T11:46:35;5.63;;;5.13;;
2564;SDS011;1292;48.020;7.822;2023-06-26T11:49:02;6.00;;;5.50;;
2564;SDS011;1292;48.020;7.822;2023-06-26T11:51:30;5.90;;;5.40;;
2564;SDS011;1292;48.020;7.822;2023-06-26T11:53:57;6.30;;;5.70;;
2564;SDS011;1292;48.020;7.822;2023-06-26T11:56:29;7.37;;;5.67;;
2564;SDS011;1292;48.020;7.822;2023-06-26T11:58:56;8.23;;;5.60;;
2564;SDS011;1292;48.020;7.822;2023-06-26T12:01:26;6.27;;;5.63;;
2564;SDS011;1292;48.020;7.822;2023-06-26T12:03:57;5.70;;;5.17;;
2564;SDS011;1292;48.020;7.822;2023-06-26T12:06:25;5.97;;;5.47;;
2564;SDS011;1292;48.020;7.822;2023-06-26T12:08:52;6.33;;;5.73;;
2564;SDS011;1292;48.020;7.822;2023-06-26T12:11:20;8.53;;;5.90;;
2564;SDS011;1292;48.020;7.822;2023-06-26T12:13:50;5.77;;;5.30;;
2564;SDS011;1292;48.020;7.822;2023-06-26T12:16:17;6.53;;;5.63;;
2564;SDS011;1292;48.020;7.822;2023-06-26T12:18:45;5.70;;;5.20;;
2564;SDS011;1292;48.020;7.822;2023-06-26T12:23:57;6.20;;;4.80;;
2564;SDS011;1292;48.020;7.822;2023-06-26T12:26:25;6.50;;;5.70;;
2564;SDS011;1292;48.020;7.822;2023-06-26T12:28:54;5.57;;;5.07;;
2564;SDS011;1292;48.020;7.822;2023-06-26T12:31:28;6.20;;;5.40;;
2564;SDS011;1292;48.020;7.822;2023-06-26T12:33:57;5.47;;;5.07;;
2564;SDS011;1292;48.020;7.822;2023-06-26T12:36:24;5.83;;;5.33;;
2564;SDS011;1292;48.020;7.822;2023-06-26T12:38:52;5.70;;;5.20;;
2564;SDS011;1292;48.020;7.822;2023-06-26T12:41:21;5.60;;;5.20;;
2564;SDS011;1292;48.020;7.822;2023-06-26T12:43:56;6.53;;;5.57;;
2564;SDS011;1292;48.020;7.822;2023-06-26T12:46:32;5.50;;;4.70;;
2564;SDS011;1292;48.020;7.822;2023-06-26T12:49:00;5.33;;;4.70;;
2564;SDS011;1292;48.020;7.822;2023-06-26T12:51:28;4.70;;;4.30;;
2564;SDS011;1292;48.020;7.822;2023-06-26T12:53:54;4.87;;;4.50;;
2564;SDS011;1292;48.020;7.822;2023-06-26T12:56:21;5.33;;;3.70;;
2564;SDS011;1292;48.020;7.822;2023-06-26T12:58:48;5.53;;;4.67;;
2564;SDS011;1292;48.020;7.822;2023-06-26T13:01:16;5.07;;;4.37;;
2564;SDS011;1292;48.020;7.822;2023-06-26T13:03:45;9.13;;;4.77;;
2564;SDS011;1292;48.020;7.822;2023-06-26T13:06:12;6.00;;;4.13;;
2564;SDS011;1292;48.020;7.822;2023-06-26T13:08:39;11.43;;;4.40;;
2564;SDS011;1292;48.020;7.822;2023-06-26T13:11:06;7.43;;;4.30;;
2564;SDS011;1292;48.020;7.822;2023-06-26T13:13:33;4.23;;;3.83;;
2564;SDS011;1292;48.020;7.822;2023-06-26T13:16:00;4.97;;;4.00;;
2564;SDS011;1292;48.020;7.822;2023-06-26T13:18:28;4.10;;;3.80;;
2564;SDS011;1292;48.020;7.822;2023-06-26T13:20:55;7.67;;;5.50;;
2564;SDS011;1292;48.020;7.822;2023-06-26T13:23:22;4.60;;;4.17;;
2564;SDS011;1292;48.020;7.822;2023-06-26T13:25:49;10.10;;;5.17;;
2564;SDS011;1292;48.020;7.822;2023-06-26T13:28:16;4.00;;;3.70;;
2564;SDS011;1292;48.020;7.822;2023-06-26T13:30:43;5.03;;;4.10;;
2564;SDS011;1292;48.020;7.822;2023-06-26T13:33:10;4.40;;;3.30;;
2564;SDS011;1292;48.020;7.822;2023-06-26T13:35:38;4.63;;;4.23;;
2564;SDS011;1292;48.020;7.822;2023-06-26T13:38:05;4.93;;;4.27;;
2564;SDS011;1292;48.020;7.822;2023-06-26T13:40:32;4.00;;;3.70;;
2564;SDS011;1292;48.020;7.822;2023-06-26T13:42:59;3.97;;;3.53;;
2564;SDS011;1292;48.020;7.822;2023-06-26T13:45:25;4.97;;;4.47;;
2564;SDS011;1292;48.020;7.822;2023-06-26T13:47:52;5.83;;;4.00;;
2564;SDS011;1292;48.020;7.822;2023-06-26T13:50:19;3.27;;;2.97;;
2564;SDS011;1292;48.020;7.822;2023-06-26T13:52:47;4.20;;;3.90;;
2564;SDS011;1292;48.020;7.822;2023-06-26T13:55:14;3.97;;;3.57;;
2564;SDS011;1292;48.020;7.822;2023-06-26T13:57:41;3.77;;;3.27;;
2564;SDS011;1292;48.020;7.822;2023-06-26T14:00:08;4.10;;;3.50;;
2564;SDS011;1292;48.020;7.822;2023-06-26T14:02:37;3.77;;;3.43;;
2564;SDS011;1292;48.020;7.822;2023-06-26T14:05:04;3.80;;;3.50;;
2564;SDS011;1292;48.020;7.822;2023-06-26T14:07:31;7.80;;;4.13;;
2564;SDS011;1292;48.020;7.822;2023-06-26T14:09:59;5.27;;;3.43;;
2564;SDS011;1292;48.020;7.822;2023-06-26T14:12:26;4.57;;;3.73;;
2564;SDS011;1292;48.020;7.822;2023-06-26T14:14:52;3.80;;;3.27;;
2564;SDS011;1292;48.020;7.822;2023-06-26T14:17:19;3.60;;;3.30;;
2564;SDS011;1292;48.020;7.822;2023-06-26T14:19:49;4.10;;;2.80;;
2564;SDS011;1292;48.020;7.822;2023-06-26T14:22:16;3.70;;;3.40;;
2564;SDS011;1292;48.020;7.822;2023-06-26T14:24:42;4.13;;;2.70;;
2564;SDS011;1292;48.020;7.822;2023-06-26T14:27:11;4.07;;;3.27;;
2564;SDS011;1292;48.020;7.822;2023-06-26T14:29:37;3.90;;;3.20;;
2564;SDS011;1292;48.020;7.822;2023-06-26T14:32:05;3.57;;;2.57;;
2564;SDS011;1292;48.020;7.822;2023-06-26T14:34:32;2.90;;;2.70;;
2564;SDS011;1292;48.020;7.822;2023-06-26T14:36:59;4.30;;;3.23;;
2564;SDS011;1292;48.020;7.822;2023-06-26T14:39:26;3.13;;;2.83;;
2564;SDS011;1292;48.020;7.822;2023-06-26T14:41:53;3.27;;;2.97;;
2564;SDS011;1292;48.020;7.822;2023-06-26T14:44:21;7.63;;;3.17;;
2564;SDS011;1292;48.020;7.822;2023-06-26T14:46:48;3.23;;;3.03;;
2564;SDS011;1292;48.020;7.822;2023-06-26T14:49:14;3.93;;;3.43;;
2564;SDS011;1292;48.020;7.822;2023-06-26T14:51:41;4.93;;;3.50;;
2564;SDS011;1292;48.020;7.822;2023-06-26T14:54:08;3.70;;;3.30;;
2564;SDS011;1292;48.020;7.822;2023-06-26T14:56:35;3.90;;;3.60;;
2564;SDS011;1292;48.020;7.822;2023-06-26T14:59:02;4.37;;;3.40;;
2564;SDS011;1292;48.020;7.822;2023-06-26T15:01:30;3.47;;;3.13;;
2564;SDS011;1292;48.020;7.822;2023-06-26T15:03:57;6.10;;;3.43;;
2564;SDS011;1292;48.020;7.822;2023-06-26T15:06:24;3.63;;;3.30;;
2564;SDS011;1292;48.020;7.822;2023-06-26T15:08:51;4.10;;;3.70;;
2564;SDS011;1292;48.020;7.822;2023-06-26T15:11:18;4.47;;;3.80;;
2564;SDS011;1292;48.020;7.822;2023-06-26T15:13:45;3.40;;;3.10;;
2564;SDS011;1292;48.020;7.822;2023-06-26T15:16:11;3.90;;;3.57;;
2564;SDS011;1292;48.020;7.822;2023-06-26T15:18:40;3.90;;;3.50;;
2564;SDS011;1292;48.020;7.822;2023-06-26T15:21:07;4.13;;;3.50;;
2564;SDS011;1292;48.020;7.822;2023-06-26T15:23:33;5.63;;;3.80;;
2564;SDS011;1292;48.020;7.822;2023-06-26T15:26:00;4.13;;;3.73;;
2564;SDS011;1292;48.020;7.822;2023-06-26T15:28:27;6.30;;;4.77;;
2564;SDS011;1292;48.020;7.822;2023-06-26T15:30:54;5.57;;;3.77;;
2564;SDS011;1292;48.020;7.822;2023-06-26T15:33:21;3.80;;;3.30;;
2564;SDS011;1292;48.020;7.822;2023-06-26T15:35:49;5.60;;;4.70;;
2564;SDS011;1292;48.020;7.822;2023-06-26T15:38:16;5.00;;;3.93;;
2564;SDS011;1292;48.020;7.822;2023-06-26T15:40:43;5.13;;;4.30;;
2564;SDS011;1292;48.020;7.822;2023-06-26T15:43:09;5.40;;;4.90;;
2564;SDS011;1292;48.020;7.822;2023-06-26T15:45:36;5.37;;;4.87;;
2564;SDS011;1292;48.020;7.822;2023-06-26T15:48:03;5.43;;;4.27;;
2564;SDS011;1292;48.020;7.822;2023-06-26T15:50:30;4.90;;;4.50;;
2564;SDS011;1292;48.020;7.822;2023-06-26T15:52:58;7.43;;;5.47;;
2564;SDS011;1292;48.020;7.822;2023-06-26T15:55:28;6.93;;;5.93;;
2564;SDS011;1292;48.020;7.822;2023-06-26T15:57:55;7.23;;;6.37;;
2564;SDS011;1292;48.020;7.822;2023-06-26T16:00:22;45.13;;;10.27;;
2564;SDS011;1292;48.020;7.822;2023-06-26T16:02:49;11.93;;;6.40;;
2564;SDS011;1292;48.020;7.822;2023-06-26T16:05:16;7.73;;;6.40;;
2564;SDS011;1292;48.020;7.822;2023-06-26T16:07:43;7.73;;;5.93;;
2564;SDS011;1292;48.020;7.822;2023-06-26T16:10:11;8.53;;;6.20;;
2564;SDS011;1292;48.020;7.822;2023-06-26T16:12:38;7.67;;;6.97;;
2564;SDS011;1292;48.020;7.822;2023-06-26T16:15:05;7.10;;;6.43;;
2564;SDS011;1292;48.020;7.822;2023-06-26T16:17:32;7.60;;;7.00;;
2564;SDS011;1292;48.020;7.822;2023-06-26T16:19:59;7.67;;;6.93;;
2564;SDS011;1292;48.020;7.822;2023-06-26T16:22:26;8.03;;;7.13;;
2564;SDS011;1292;48.020;7.822;2023-06-26T16:24:53;13.30;;;7.43;;
2564;SDS011;1292;48.020;7.822;2023-06-26T16:27:21;9.97;;;6.70;;
2564;SDS011;1292;48.020;7.822;2023-06-26T16:29:48;7.10;;;6.40;;
2564;SDS011;1292;48.020;7.822;2023-06-26T16:32:14;9.33;;;7.20;;
2564;SDS011;1292;48.020;7.822;2023-06-26T16:34:41;7.20;;;6.10;;
2564;SDS011;1292;48.020;7.822;2023-06-26T16:37:08;6.70;;;6.10;;
2564;SDS011;1292;48.020;7.822;2023-06-26T16:39:35;6.87;;;6.20;;
2564;SDS011;1292;48.020;7.822;2023-06-26T16:42:02;7.00;;;5.57;;
2564;SDS011;1292;48.020;7.822;2023-06-26T16:44:30;6.43;;;5.83;;
2564;SDS011;1292;48.020;7.822;2023-06-26T16:46:57;5.80;;;5.30;;
2564;SDS011;1292;48.020;7.822;2023-06-26T16:49:24;5.97;;;5.00;;
2564;SDS011;1292;48.020;7.822;2023-06-26T16:51:51;6.20;;;5.37;;
2564;SDS011;1292;48.020;7.822;2023-06-26T16:54:21;5.70;;;5.07;;
2564;SDS011;1292;48.020;7.822;2023-06-26T16:56:48;5.43;;;4.87;;
2564;SDS011;1292;48.020;7.822;2023-06-26T16:59:14;5.73;;;4.23;;
2564;SDS011;1292;48.020;7.822;2023-06-26T17:01:43;6.33;;;5.00;;
2564;SDS011;1292;48.020;7.822;2023-06-26T17:04:09;6.80;;;5.70;;
2564;SDS011;1292;48.020;7.822;2023-06-26T17:06:36;7.97;;;5.47;;
2564;SDS011;1292;48.020;7.822;2023-06-26T17:09:03;8.07;;;5.67;;
2564;SDS011;1292;48.020;7.822;2023-06-26T17:11:30;6.90;;;5.10;;
2564;SDS011;1292;48.020;7.822;2023-06-26T17:13:57;6.60;;;4.90;;
2564;SDS011;1292;48.020;7.822;2023-06-26T17:16:23;5.10;;;4.60;;
2564;SDS011;1292;48.020;7.822;2023-06-26T17:18:52;5.03;;;4.63;;
2564;SDS011;1292;48.020;7.822;2023-06-26T17:21:18;5.87;;;5.30;;
2564;SDS011;1292;48.020;7.822;2023-06-26T17:23:45;5.30;;;4.83;;
2564;SDS011;1292;48.020;7.822;2023-06-26T17:26:12;4.80;;;4.40;;
2564;SDS011;1292;48.020;7.822;2023-06-26T17:28:39;10.37;;;5.03;;
2564;SDS011;1292;48.020;7.822;2023-06-26T17:31:05;4.90;;;4.50;;
2564;SDS011;1292;48.020;7.822;2023-06-26T17:33:32;5.00;;;4.40;;
2564;SDS011;1292;48.020;7.822;2023-06-26T17:36:00;5.73;;;4.20;;
2564;SDS011;1292;48.020;7.822;2023-06-26T17:38:29;6.43;;;4.13;;
2564;SDS011;1292;48.020;7.822;2023-06-26T17:40:58;4.70;;;3.83;;
2564;SDS011;1292;48.020;7.822;2023-06-26T17:43:25;9.33;;;4.27;;
2564;SDS011;1292;48.020;7.822;2023-06-26T17:45:51;5.20;;;4.10;;
2564;SDS011;1292;48.020;7.822;2023-06-26T17:48:18;4.23;;;3.40;;
2564;SDS011;1292;48.020;7.822;2023-06-26T17:50:46;5.00;;;4.30;;
2564;SDS011;1292;48.020;7.822;2023-06-26T17:53:14;3.97;;;3.63;;
2564;SDS011;1292;48.020;7.822;2023-06-26T17:55:42;8.13;;;4.30;;
2564;SDS011;1292;48.020;7.822;2023-06-26T17:58:09;4.17;;;3.27;;
2564;SDS011;1292;48.020;7.822;2023-06-26T18:00:36;3.97;;;3.57;;
2564;SDS011;1292;48.020;7.822;2023-06-26T18:03:03;13.30;;;3.63;;
2564;SDS011;1292;48.020;7.822;2023-06-26T18:05:30;4.73;;;2.67;;
2564;SDS011;1292;48.020;7.822;2023-06-26T18:07:56;5.63;;;2.77;;
2564;SDS011;1292;48.020;7.822;2023-06-26T18:10:25;2.90;;;2.50;;
2564;SDS011;1292;48.020;7.822;2023-06-26T18:12:51;5.77;;;3.83;;
2564;SDS011;1292;48.020;7.822;2023-06-26T18:15:21;4.10;;;2.60;;
2564;SDS011;1292;48.020;7.822;2023-06-26T18:17:48;4.10;;;2.43;;
2564;SDS011;1292;48.020;7.822;2023-06-26T18:20:15;8.93;;;2.73;;
2564;SDS011;1292;48.020;7.822;2023-06-26T18:22:41;4.50;;;2.43;;
2564;SDS011;1292;48.020;7.822;2023-06-26T18:25:08;3.17;;;2.53;;
2564;SDS011;1292;48.020;7.822;2023-06-26T18:27:38;4.93;;;2.60;;
2564;SDS011;1292;48.020;7.822;2023-06-26T18:30:06;5.70;;;2.60;;
2564;SDS011;1292;48.020;7.822;2023-06-26T18:32:33;5.40;;;2.67;;
2564;SDS011;1292;48.020;7.822;2023-06-26T18:35:00;3.60;;;2.87;;
2564;SDS011;1292;48.020;7.822;2023-06-26T18:37:27;3.50;;;2.30;;
2564;SDS011;1292;48.020;7.822;2023-06-26T18:39:54;3.53;;;2.20;;
2564;SDS011;1292;48.020;7.822;2023-06-26T18:42:21;7.77;;;3.40;;
2564;SDS011;1292;48.020;7.822;2023-06-26T18:44:49;6.70;;;2.93;;
2564;SDS011;1292;48.020;7.822;2023-06-26T18:47:16;7.13;;;2.67;;
2564;SDS011;1292;48.020;7.822;2023-06-26T18:49:43;3.57;;;2.20;;
2564;SDS011;1292;48.020;7.822;2023-06-26T18:52:10;3.20;;;2.10;;
2564;SDS011;1292;48.020;7.822;2023-06-26T18:54:37;3.53;;;2.60;;
2564;SDS011;1292;48.020;7.822;2023-06-26T18:57:04;3.40;;;2.27;;
2564;SDS011;1292;48.020;7.822;2023-06-26T18:59:31;4.13;;;2.57;;
2564;SDS011;1292;48.020;7.822;2023-06-26T19:01:59;9.03;;;2.03;;
2564;SDS011;1292;48.020;7.822;2023-06-26T19:04:26;3.27;;;1.73;;
2564;SDS011;1292;48.020;7.822;2023-06-26T19:06:52;1.93;;;1.70;;
2564;SDS011;1292;48.020;7.822;2023-06-26T19:09:19;5.83;;;2.20;;
2564;SDS011;1292;48.020;7.822;2023-06-26T19:11:46;3.20;;;2.30;;
2564;SDS011;1292;48.020;7.822;2023-06-26T19:14:13;4.83;;;1.97;;
2564;SDS011;1292;48.020;7.822;2023-06-26T19:16:40;2.73;;;1.80;;
2564;SDS011;1292;48.020;7.822;2023-06-26T19:19:08;2.67;;;1.80;;
2564;SDS011;1292;48.020;7.822;2023-06-26T19:21:35;3.37;;;1.97;;
2564;SDS011;1292;48.020;7.822;2023-06-26T19:24:02;4.47;;;1.90;;
2564;SDS011;1292;48.020;7.822;2023-06-26T19:26:29;2.27;;;1.87;;
2564;SDS011;1292;48.020;7.822;2023-06-26T19:28:55;4.33;;;1.67;;
2564;SDS011;1292;48.020;7.822;2023-06-26T19:31:22;5.90;;;1.60;;
2564;SDS011;1292;48.020;7.822;2023-06-26T19:33:49;2.60;;;1.70;;
2564;SDS011;1292;48.020;7.822;2023-06-26T19:36:18;1.83;;;1.63;;
2564;SDS011;1292;48.020;7.822;2023-06-26T19:38:46;4.63;;;1.70;;
2564;SDS011;1292;48.020;7.822;2023-06-26T19:41:13;2.13;;;1.57;;
2564;SDS011;1292;48.020;7.822;2023-06-26T19:43:40;2.80;;;1.53;;
2564;SDS011;1292;48.020;7.822;2023-06-26T19:46:07;3.90;;;2.03;;
2564;SDS011;1292;48.020;7.822;2023-06-26T19:48:34;3.87;;;1.93;;
2564;SDS011;1292;48.020;7.822;2023-06-26T19:51:01;8.50;;;1.70;;
2564;SDS011;1292;48.020;7.822;2023-06-26T19:53:30;2.27;;;2.07;;
2564;SDS011;1292;48.020;7.822;2023-06-26T19:55:57;2.70;;;1.37;;
2564;SDS011;1292;48.020;7.822;2023-06-26T19:58:24;8.57;;;1.80;;
2564;SDS011;1292;48.020;7.822;2023-06-26T20:00:50;4.57;;;1.60;;
2564;SDS011;1292;48.020;7.822;2023-06-26T20:03:17;4.77;;;1.50;;
2564;SDS011;1292;48.020;7.822;2023-06-26T20:05:44;3.47;;;1.80;;
2564;SDS011;1292;48.020;7.822;2023-06-26T20:08:11;5.23;;;1.77;;
2564;SDS011;1292;48.020;7.822;2023-06-26T20:10:39;2.40;;;1.63;;
2564;SDS011;1292;48.020;7.822;2023-06-26T20:13:06;3.03;;;1.73;;
2564;SDS011;1292;48.020;7.822;2023-06-26T20:15:33;2.90;;;1.50;;
2564;SDS011;1292;48.020;7.822;2023-06-26T20:18:02;3.40;;;1.83;;
2564;SDS011;1292;48.020;7.822;2023-06-26T20:20:29;3.90;;;2.20;;
2564;SDS011;1292;48.020;7.822;2023-06-26T20:22:55;4.40;;;1.63;;
2564;SDS011;1292;48.020;7.822;2023-06-26T20:25:22;5.20;;;1.90;;
2564;SDS011;1292;48.020;7.822;2023-06-26T20:27:50;2.83;;;1.80;;
2564;SDS011;1292;48.020;7.822;2023-06-26T20:30:17;4.47;;;1.67;;
2564;SDS011;1292;48.020;7.822;2023-06-26T20:32:44;2.57;;;1.80;;
2564;SDS011;1292;48.020;7.822;2023-06-26T20:35:12;4.50;;;1.73;;
2564;SDS011;1292;48.020;7.822;2023-06-26T20:37:39;3.97;;;1.60;;
2564;SDS011;1292;48.020;7.822;2023-06-26T20:40:06;4.07;;;1.47;;
2564;SDS011;1292;48.020;7.822;2023-06-26T20:42:34;3.60;;;2.13;;
2564;SDS011;1292;48.020;7.822;2023-06-26T20:45:04;2.80;;;1.30;;
2564;SDS011;1292;48.020;7.822;2023-06-26T20:47:32;3.20;;;2.40;;
2564;SDS011;1292;48.020;7.822;2023-06-26T20:50:01;3.77;;;1.87;;
2564;SDS011;1292;48.020;7.822;2023-06-26T20:52:29;5.30;;;2.40;;
2564;SDS011;1292;48.020;7.822;2023-06-26T20:54:58;4.47;;;2.27;;
2564;SDS011;1292;48.020;7.822;2023-06-26T20:57:26;6.53;;;2.20;;
2564;SDS011;1292;48.020;7.822;2023-06-26T20:59:52;3.90;;;2.13;;
2564;SDS011;1292;48.020;7.822;2023-06-26T21:02:21;4.90;;;1.77;;
2564;SDS011;1292;48.020;7.822;2023-06-26T21:04:47;2.87;;;1.80;;
2564;SDS011;1292;48.020;7.822;2023-06-26T21:07:14;3.20;;;2.03;;
2564;SDS011;1292;48.020;7.822;2023-06-26T21:09:41;3.30;;;1.90;;